Detall de PIREP

Printer-friendly versionPDF version

[2010/01/23 08:56:00]
Flight IATA:CT2110
Pilot Number:041
Company ICAO:CAT
Aircraft Type:F50/A
PAX:30
Departing Airport: LEVC
Destination Airport: LEST
Alternate Airport:LECO
Online: VATSIM
Route:CENTA A33 PRADO A33 CJN A33 HORTA A33 MAGIN A33 INDEG A33 DISKO A33 ZMR A33 BARKO


Flight Level:FL190
No Slew and time accel
No pause
Crash detect
Detect pilot in Cockpit between each 30 and 45 minutes
08:56 Zero fuel Weight: 35102 Lbs, Fuel Weight: 4980 Lbs
08:56 VATSIM:LEVC 230830Z 32007KT 9999 SCT016 SCT040 09/06 Q1019 NOSIG
08:56 VATSIM:LEST 230830Z 00000KT 8000 0600NW BCFG SCT002 08/08 Q1016 NOSIG
08:56 VOICE CATALONIAN
08:57 Parking Brakes off
09:04 Take-off
09:04 Take off Weight: 39991 Lbs
09:04 Wind: 323º @ 006 Knots Heading: 296º
09:04 POS N39º 29´ 22´´ W000º 28´ 56´´
09:04 Gear Up: 134 Knots
09:04 Flaps:1 at 134 Knots
09:04 Flaps:0 at 158 Knots
09:19 Wind:2
25º@010 Knots Heading: 296º Ground Speed: 207 Knots Altitude 11807 ft
09:24 TOC
09:24 Fuel Weight: 4157 Lb
09:34 Wind:230º@011 Knots Heading: 295º Ground Speed: 257 Knots Altitude 19061 ft
09:49 Wind:224º@011 Knots Heading: 294º Ground Speed: 254 Knots Altitude 19068 ft
10:04 Wind:173º@004 Knots Heading: 294º Ground Speed: 260 Knots Altitude 19071 ft
10:04 TOD
10:04 Fuel Weight: 3020 Lb
10:19 Wind:153º@006 Knots Heading: 303º Ground Speed: 236 Knots Altitude 9084 ft
10:34 Wind:092º@015 Knots Heading: 277º Ground Speed: 249 Knots Altitude 9051 ft
10:43 Flaps:1 at 168 Knots
10:44 Flaps:2 at 148 Knots
10:49 Wind:021º@003 Knots Heading: 345º Ground Speed: 146 Knots Altitude 3100 ft
10:51 Flaps:3 at 153 Knots
10:52 Gear Down: 140 Knots
10:53 Flaps:4 at 120 Knots
10:53 Flaps:5 at 106 Knots
10:53 Flaps:6 at 106 Knots
10:55 TouchDown:Rate -302 ft/min Speed: 91 Knots

10:56 VATSIM:LEST 231030Z 01005KT 330V040 6000 2000NW VCFG FEW002 BKN005 09/09 Q1017 NOSIG
10:56 Land
10:56 Wind:006º@002 Knots
10:56 Heading: 337º
10:56 Flight Duration: 01:52
10:56 Landing Weight: 36863 Lbs
10:56 POS N42º 53´ 48´´ W008º 24´ 55´´
10:57 Parking brakes on
10:57 Block to Block Duration: 02:00
10:57 Final Fuel: 1748 Lbls
10:57 Spent Fuel: 3231 Lbls
10:57 Flight Length: 429 NM
10:57 TOD Land Length: 185 NM

Exportar CSV

Powered by Drupal - Modified by Danger4k